sensor_id;sensor_type;location;lat;lon;timestamp;P1;durP1;ratioP1;P2;durP2;ratioP2
61397;SDS011;47267;48.130;-2.040;2024-03-07T00:02:17;3.92;;;1.77;;
61397;SDS011;47267;48.130;-2.040;2024-03-07T00:04:43;3.75;;;1.65;;
61397;SDS011;47267;48.130;-2.040;2024-03-07T00:07:09;3.05;;;1.77;;
61397;SDS011;47267;48.130;-2.040;2024-03-07T00:09:35;3.17;;;1.70;;
61397;SDS011;47267;48.130;-2.040;2024-03-07T00:12:02;2.28;;;1.65;;
61397;SDS011;47267;48.130;-2.040;2024-03-07T00:14:28;2.85;;;1.77;;
61397;SDS011;47267;48.130;-2.040;2024-03-07T00:16:57;3.63;;;1.88;;
61397;SDS011;47267;48.130;-2.040;2024-03-07T00:19:24;2.95;;;1.70;;
61397;SDS011;47267;48.130;-2.040;2024-03-07T00:21:58;3.65;;;1.80;;
61397;SDS011;47267;48.130;-2.040;2024-03-07T00:24:24;3.45;;;1.65;;
61397;SDS011;47267;48.130;-2.040;2024-03-07T00:26:52;2.92;;;1.70;;
61397;SDS011;47267;48.130;-2.040;2024-03-07T00:29:18;2.58;;;1.50;;
61397;SDS011;47267;48.130;-2.040;2024-03-07T00:31:48;2.05;;;1.35;;
61397;SDS011;47267;48.130;-2.040;2024-03-07T00:34:14;3.42;;;1.92;;
61397;SDS011;47267;48.130;-2.040;2024-03-07T00:36:45;2.90;;;1.70;;
61397;SDS011;47267;48.130;-2.040;2024-03-07T00:39:11;2.47;;;1.65;;
61397;SDS011;47267;48.130;-2.040;2024-03-07T00:41:40;2.70;;;1.73;;
61397;SDS011;47267;48.130;-2.040;2024-03-07T00:44:07;3.75;;;1.80;;
61397;SDS011;47267;48.130;-2.040;2024-03-07T00:46:37;2.42;;;1.80;;
61397;SDS011;47267;48.130;-2.040;2024-03-07T00:49:03;3.33;;;1.95;;
61397;SDS011;47267;48.130;-2.040;2024-03-07T00:51:30;2.67;;;1.67;;
61397;SDS011;47267;48.130;-2.040;2024-03-07T00:53:56;2.70;;;1.60;;
61397;SDS011;47267;48.130;-2.040;2024-03-07T00:56:23;2.28;;;1.60;;
61397;SDS011;47267;48.130;-2.040;2024-03-07T00:58:49;3.72;;;1.80;;
61397;SDS011;47267;48.130;-2.040;2024-03-07T01:01:16;3.10;;;1.88;;
61397;SDS011;47267;48.130;-2.040;2024-03-07T01:03:42;2.30;;;1.67;;
61397;SDS011;47267;48.130;-2.040;2024-03-07T01:06:08;4.95;;;1.80;;
61397;SDS011;47267;48.130;-2.040;2024-03-07T01:08:35;2.90;;;1.60;;
61397;SDS011;47267;48.130;-2.040;2024-03-07T01:11:02;2.85;;;1.75;;
61397;SDS011;47267;48.130;-2.040;2024-03-07T01:13:34;2.78;;;1.63;;
61397;SDS011;47267;48.130;-2.040;2024-03-07T01:16:00;2.95;;;1.95;;
61397;SDS011;47267;48.130;-2.040;2024-03-07T01:18:26;3.35;;;1.90;;
61397;SDS011;47267;48.130;-2.040;2024-03-07T01:20:52;2.50;;;1.73;;
61397;SDS011;47267;48.130;-2.040;2024-03-07T01:23:19;4.00;;;1.98;;
61397;SDS011;47267;48.130;-2.040;2024-03-07T01:25:45;2.25;;;1.50;;
61397;SDS011;47267;48.130;-2.040;2024-03-07T01:28:11;2.20;;;1.60;;
61397;SDS011;47267;48.130;-2.040;2024-03-07T01:30:39;2.20;;;1.67;;
61397;SDS011;47267;48.130;-2.040;2024-03-07T01:33:05;2.15;;;1.52;;
61397;SDS011;47267;48.130;-2.040;2024-03-07T01:35:31;3.50;;;1.42;;
61397;SDS011;47267;48.130;-2.040;2024-03-07T01:37:57;3.10;;;1.70;;
61397;SDS011;47267;48.130;-2.040;2024-03-07T01:40:23;3.25;;;1.83;;
61397;SDS011;47267;48.130;-2.040;2024-03-07T01:42:49;2.30;;;1.52;;
61397;SDS011;47267;48.130;-2.040;2024-03-07T01:45:16;3.35;;;1.67;;
61397;SDS011;47267;48.130;-2.040;2024-03-07T01:47:43;3.60;;;1.48;;
61397;SDS011;47267;48.130;-2.040;2024-03-07T01:50:10;2.30;;;1.42;;
61397;SDS011;47267;48.130;-2.040;2024-03-07T01:52:38;2.97;;;1.60;;
61397;SDS011;47267;48.130;-2.040;2024-03-07T01:55:06;2.15;;;1.50;;
61397;SDS011;47267;48.130;-2.040;2024-03-07T01:57:32;2.83;;;1.80;;
61397;SDS011;47267;48.130;-2.040;2024-03-07T01:59:58;1.95;;;1.33;;
61397;SDS011;47267;48.130;-2.040;2024-03-07T02:02:31;2.58;;;1.67;;
61397;SDS011;47267;48.130;-2.040;2024-03-07T02:04:57;2.60;;;1.50;;
61397;SDS011;47267;48.130;-2.040;2024-03-07T02:07:23;3.95;;;1.95;;
61397;SDS011;47267;48.130;-2.040;2024-03-07T02:09:49;2.95;;;1.50;;
61397;SDS011;47267;48.130;-2.040;2024-03-07T02:12:15;3.25;;;2.03;;
61397;SDS011;47267;48.130;-2.040;2024-03-07T02:14:41;3.08;;;2.05;;
61397;SDS011;47267;48.130;-2.040;2024-03-07T02:17:07;2.35;;;1.52;;
61397;SDS011;47267;48.130;-2.040;2024-03-07T02:19:33;3.10;;;1.52;;
61397;SDS011;47267;48.130;-2.040;2024-03-07T02:21:59;2.70;;;1.83;;
61397;SDS011;47267;48.130;-2.040;2024-03-07T02:24:25;2.88;;;1.60;;
61397;SDS011;47267;48.130;-2.040;2024-03-07T02:26:51;1.83;;;1.30;;
61397;SDS011;47267;48.130;-2.040;2024-03-07T02:29:17;2.97;;;1.88;;
61397;SDS011;47267;48.130;-2.040;2024-03-07T02:31:44;4.63;;;1.77;;
61397;SDS011;47267;48.130;-2.040;2024-03-07T02:34:10;3.00;;;1.50;;
61397;SDS011;47267;48.130;-2.040;2024-03-07T02:36:37;2.22;;;1.50;;
61397;SDS011;47267;48.130;-2.040;2024-03-07T02:39:03;2.47;;;1.50;;
61397;SDS011;47267;48.130;-2.040;2024-03-07T02:41:29;3.08;;;1.70;;
61397;SDS011;47267;48.130;-2.040;2024-03-07T02:43:55;2.55;;;1.40;;
61397;SDS011;47267;48.130;-2.040;2024-03-07T02:46:21;4.78;;;2.00;;
61397;SDS011;47267;48.130;-2.040;2024-03-07T02:48:47;2.63;;;1.30;;
61397;SDS011;47267;48.130;-2.040;2024-03-07T02:51:13;2.55;;;1.60;;
61397;SDS011;47267;48.130;-2.040;2024-03-07T02:53:39;2.50;;;1.58;;
61397;SDS011;47267;48.130;-2.040;2024-03-07T02:56:05;3.22;;;1.55;;
61397;SDS011;47267;48.130;-2.040;2024-03-07T02:58:34;3.00;;;1.50;;
61397;SDS011;47267;48.130;-2.040;2024-03-07T03:01:00;2.67;;;1.50;;
61397;SDS011;47267;48.130;-2.040;2024-03-07T03:03:28;1.92;;;1.38;;
61397;SDS011;47267;48.130;-2.040;2024-03-07T03:05:56;4.80;;;2.00;;
61397;SDS011;47267;48.130;-2.040;2024-03-07T03:08:23;3.22;;;1.67;;
61397;SDS011;47267;48.130;-2.040;2024-03-07T03:10:49;3.08;;;1.83;;
61397;SDS011;47267;48.130;-2.040;2024-03-07T03:13:16;3.40;;;1.70;;
61397;SDS011;47267;48.130;-2.040;2024-03-07T03:15:43;2.58;;;1.50;;
61397;SDS011;47267;48.130;-2.040;2024-03-07T03:18:08;3.25;;;1.38;;
61397;SDS011;47267;48.130;-2.040;2024-03-07T03:20:35;2.45;;;1.55;;
61397;SDS011;47267;48.130;-2.040;2024-03-07T03:23:04;3.30;;;1.85;;
61397;SDS011;47267;48.130;-2.040;2024-03-07T03:25:31;3.65;;;1.70;;
61397;SDS011;47267;48.130;-2.040;2024-03-07T03:28:06;2.55;;;1.48;;
61397;SDS011;47267;48.130;-2.040;2024-03-07T03:30:35;3.30;;;1.60;;
61397;SDS011;47267;48.130;-2.040;2024-03-07T03:33:01;3.53;;;1.58;;
61397;SDS011;47267;48.130;-2.040;2024-03-07T03:35:27;2.55;;;1.70;;
61397;SDS011;47267;48.130;-2.040;2024-03-07T03:37:53;3.08;;;1.42;;
61397;SDS011;47267;48.130;-2.040;2024-03-07T03:40:19;3.30;;;2.05;;
61397;SDS011;47267;48.130;-2.040;2024-03-07T03:42:45;3.95;;;1.70;;
61397;SDS011;47267;48.130;-2.040;2024-03-07T03:45:11;2.53;;;1.40;;
61397;SDS011;47267;48.130;-2.040;2024-03-07T03:47:41;2.72;;;1.48;;
61397;SDS011;47267;48.130;-2.040;2024-03-07T03:50:09;2.38;;;1.35;;
61397;SDS011;47267;48.130;-2.040;2024-03-07T03:52:35;3.22;;;1.48;;
61397;SDS011;47267;48.130;-2.040;2024-03-07T03:55:02;2.60;;;1.35;;
61397;SDS011;47267;48.130;-2.040;2024-03-07T03:57:30;2.60;;;1.48;;
61397;SDS011;47267;48.130;-2.040;2024-03-07T03:59:57;2.17;;;1.30;;
61397;SDS011;47267;48.130;-2.040;2024-03-07T04:02:23;2.53;;;1.55;;
61397;SDS011;47267;48.130;-2.040;2024-03-07T04:04:49;3.25;;;1.50;;
61397;SDS011;47267;48.130;-2.040;2024-03-07T04:07:17;2.80;;;1.50;;
61397;SDS011;47267;48.130;-2.040;2024-03-07T04:09:43;2.88;;;1.60;;
61397;SDS011;47267;48.130;-2.040;2024-03-07T04:12:10;3.17;;;1.77;;
61397;SDS011;47267;48.130;-2.040;2024-03-07T04:14:39;3.05;;;1.40;;
61397;SDS011;47267;48.130;-2.040;2024-03-07T04:17:06;2.65;;;1.70;;
61397;SDS011;47267;48.130;-2.040;2024-03-07T04:19:34;2.10;;;1.35;;
61397;SDS011;47267;48.130;-2.040;2024-03-07T04:22:00;2.80;;;1.52;;
61397;SDS011;47267;48.130;-2.040;2024-03-07T04:24:28;2.63;;;1.38;;
61397;SDS011;47267;48.130;-2.040;2024-03-07T04:26:54;3.75;;;1.70;;
61397;SDS011;47267;48.130;-2.040;2024-03-07T04:29:20;3.08;;;1.40;;
61397;SDS011;47267;48.130;-2.040;2024-03-07T04:31:46;3.50;;;1.38;;
61397;SDS011;47267;48.130;-2.040;2024-03-07T04:34:12;1.83;;;1.27;;
61397;SDS011;47267;48.130;-2.040;2024-03-07T04:36:38;2.92;;;1.60;;
61397;SDS011;47267;48.130;-2.040;2024-03-07T04:39:05;3.22;;;1.60;;
61397;SDS011;47267;48.130;-2.040;2024-03-07T04:41:47;3.88;;;1.50;;
61397;SDS011;47267;48.130;-2.040;2024-03-07T04:44:13;3.03;;;1.45;;
61397;SDS011;47267;48.130;-2.040;2024-03-07T04:46:39;2.80;;;1.60;;
61397;SDS011;47267;48.130;-2.040;2024-03-07T04:49:07;1.98;;;1.25;;
61397;SDS011;47267;48.130;-2.040;2024-03-07T04:51:34;2.83;;;1.67;;
61397;SDS011;47267;48.130;-2.040;2024-03-07T04:54:00;2.30;;;1.35;;
61397;SDS011;47267;48.130;-2.040;2024-03-07T04:56:26;2.17;;;1.20;;
61397;SDS011;47267;48.130;-2.040;2024-03-07T04:58:52;2.70;;;1.45;;
61397;SDS011;47267;48.130;-2.040;2024-03-07T05:01:19;3.63;;;1.58;;
61397;SDS011;47267;48.130;-2.040;2024-03-07T05:03:45;2.47;;;1.35;;
61397;SDS011;47267;48.130;-2.040;2024-03-07T05:06:12;3.35;;;1.50;;
61397;SDS011;47267;48.130;-2.040;2024-03-07T05:08:38;2.15;;;1.50;;
61397;SDS011;47267;48.130;-2.040;2024-03-07T05:11:04;2.60;;;1.55;;
61397;SDS011;47267;48.130;-2.040;2024-03-07T05:13:30;2.83;;;1.50;;
61397;SDS011;47267;48.130;-2.040;2024-03-07T05:15:59;2.05;;;1.23;;
61397;SDS011;47267;48.130;-2.040;2024-03-07T05:18:26;1.75;;;1.35;;
61397;SDS011;47267;48.130;-2.040;2024-03-07T05:20:52;2.85;;;1.40;;
61397;SDS011;47267;48.130;-2.040;2024-03-07T05:23:19;2.78;;;1.50;;
61397;SDS011;47267;48.130;-2.040;2024-03-07T05:25:45;2.92;;;1.30;;
61397;SDS011;47267;48.130;-2.040;2024-03-07T05:28:11;2.65;;;1.40;;
61397;SDS011;47267;48.130;-2.040;2024-03-07T05:30:37;1.80;;;1.02;;
61397;SDS011;47267;48.130;-2.040;2024-03-07T05:33:03;2.92;;;1.65;;
61397;SDS011;47267;48.130;-2.040;2024-03-07T05:35:29;1.70;;;1.13;;
61397;SDS011;47267;48.130;-2.040;2024-03-07T05:37:56;5.05;;;1.60;;
61397;SDS011;47267;48.130;-2.040;2024-03-07T05:40:23;2.40;;;1.20;;
61397;SDS011;47267;48.130;-2.040;2024-03-07T05:42:49;2.38;;;1.23;;
61397;SDS011;47267;48.130;-2.040;2024-03-07T05:45:15;2.42;;;1.40;;
61397;SDS011;47267;48.130;-2.040;2024-03-07T05:47:42;3.40;;;1.40;;
61397;SDS011;47267;48.130;-2.040;2024-03-07T05:50:09;2.72;;;1.20;;
61397;SDS011;47267;48.130;-2.040;2024-03-07T05:52:35;2.85;;;1.33;;
61397;SDS011;47267;48.130;-2.040;2024-03-07T05:55:02;2.92;;;1.45;;
61397;SDS011;47267;48.130;-2.040;2024-03-07T05:57:28;1.77;;;1.10;;
61397;SDS011;47267;48.130;-2.040;2024-03-07T05:59:54;2.40;;;1.25;;
61397;SDS011;47267;48.130;-2.040;2024-03-07T06:02:21;3.70;;;1.38;;
61397;SDS011;47267;48.130;-2.040;2024-03-07T06:04:47;2.40;;;1.45;;
61397;SDS011;47267;48.130;-2.040;2024-03-07T06:07:13;2.65;;;1.15;;
61397;SDS011;47267;48.130;-2.040;2024-03-07T06:09:39;2.33;;;1.38;;
61397;SDS011;47267;48.130;-2.040;2024-03-07T06:12:06;2.20;;;1.23;;
61397;SDS011;47267;48.130;-2.040;2024-03-07T06:14:34;2.42;;;1.30;;
61397;SDS011;47267;48.130;-2.040;2024-03-07T06:17:00;2.42;;;1.38;;
61397;SDS011;47267;48.130;-2.040;2024-03-07T06:19:26;3.58;;;1.58;;
61397;SDS011;47267;48.130;-2.040;2024-03-07T06:21:52;2.85;;;1.50;;
61397;SDS011;47267;48.130;-2.040;2024-03-07T06:24:19;3.00;;;1.30;;
61397;SDS011;47267;48.130;-2.040;2024-03-07T06:26:48;2.58;;;1.50;;
61397;SDS011;47267;48.130;-2.040;2024-03-07T06:29:24;2.85;;;1.40;;
61397;SDS011;47267;48.130;-2.040;2024-03-07T06:31:53;3.25;;;1.50;;
61397;SDS011;47267;48.130;-2.040;2024-03-07T06:34:20;4.07;;;1.45;;
61397;SDS011;47267;48.130;-2.040;2024-03-07T06:36:46;2.58;;;1.40;;
61397;SDS011;47267;48.130;-2.040;2024-03-07T06:39:12;2.20;;;1.20;;
61397;SDS011;47267;48.130;-2.040;2024-03-07T06:41:38;2.97;;;1.40;;
61397;SDS011;47267;48.130;-2.040;2024-03-07T06:44:05;2.97;;;1.35;;
61397;SDS011;47267;48.130;-2.040;2024-03-07T06:46:32;2.00;;;1.13;;
61397;SDS011;47267;48.130;-2.040;2024-03-07T06:48:59;3.15;;;1.33;;
61397;SDS011;47267;48.130;-2.040;2024-03-07T06:51:25;2.45;;;1.33;;
61397;SDS011;47267;48.130;-2.040;2024-03-07T06:53:51;2.45;;;1.15;;
61397;SDS011;47267;48.130;-2.040;2024-03-07T06:56:17;3.40;;;1.65;;
61397;SDS011;47267;48.130;-2.040;2024-03-07T06:58:43;2.08;;;1.30;;
61397;SDS011;47267;48.130;-2.040;2024-03-07T07:01:11;2.15;;;1.40;;
61397;SDS011;47267;48.130;-2.040;2024-03-07T07:03:40;2.00;;;1.13;;
61397;SDS011;47267;48.130;-2.040;2024-03-07T07:06:08;2.45;;;1.30;;
61397;SDS011;47267;48.130;-2.040;2024-03-07T07:08:35;2.50;;;1.20;;
61397;SDS011;47267;48.130;-2.040;2024-03-07T07:11:01;3.10;;;1.17;;
61397;SDS011;47267;48.130;-2.040;2024-03-07T07:13:29;2.47;;;1.20;;
61397;SDS011;47267;48.130;-2.040;2024-03-07T07:15:55;3.80;;;1.58;;
61397;SDS011;47267;48.130;-2.040;2024-03-07T07:18:21;2.67;;;1.52;;
61397;SDS011;47267;48.130;-2.040;2024-03-07T07:20:48;4.10;;;1.38;;
61397;SDS011;47267;48.130;-2.040;2024-03-07T07:23:17;3.38;;;1.63;;
61397;SDS011;47267;48.130;-2.040;2024-03-07T07:25:43;2.78;;;1.50;;
61397;SDS011;47267;48.130;-2.040;2024-03-07T07:28:09;2.60;;;1.40;;
61397;SDS011;47267;48.130;-2.040;2024-03-07T07:30:36;5.10;;;1.70;;
61397;SDS011;47267;48.130;-2.040;2024-03-07T07:33:02;3.35;;;1.73;;
61397;SDS011;47267;48.130;-2.040;2024-03-07T07:35:28;7.30;;;1.92;;
61397;SDS011;47267;48.130;-2.040;2024-03-07T07:37:54;4.35;;;1.85;;
61397;SDS011;47267;48.130;-2.040;2024-03-07T07:40:21;5.50;;;2.00;;
61397;SDS011;47267;48.130;-2.040;2024-03-07T07:42:49;4.10;;;1.88;;
61397;SDS011;47267;48.130;-2.040;2024-03-07T07:45:16;5.53;;;1.95;;
61397;SDS011;47267;48.130;-2.040;2024-03-07T07:50:09;4.20;;;1.73;;
61397;SDS011;47267;48.130;-2.040;2024-03-07T07:52:57;3.17;;;1.40;;
61397;SDS011;47267;48.130;-2.040;2024-03-07T07:55:24;3.58;;;1.60;;
61397;SDS011;47267;48.130;-2.040;2024-03-07T07:57:52;4.13;;;2.20;;
61397;SDS011;47267;48.130;-2.040;2024-03-07T08:00:19;5.07;;;1.80;;
61397;SDS011;47267;48.130;-2.040;2024-03-07T08:05:17;4.50;;;1.90;;
61397;SDS011;47267;48.130;-2.040;2024-03-07T08:07:45;7.07;;;2.30;;
61397;SDS011;47267;48.130;-2.040;2024-03-07T08:10:12;4.47;;;1.77;;
61397;SDS011;47267;48.130;-2.040;2024-03-07T08:12:39;3.47;;;1.40;;
61397;SDS011;47267;48.130;-2.040;2024-03-07T08:15:08;6.50;;;2.10;;
61397;SDS011;47267;48.130;-2.040;2024-03-07T08:17:34;8.90;;;2.90;;
61397;SDS011;47267;48.130;-2.040;2024-03-07T08:20:00;7.78;;;2.45;;
61397;SDS011;47267;48.130;-2.040;2024-03-07T08:22:27;6.95;;;2.35;;
61397;SDS011;47267;48.130;-2.040;2024-03-07T08:24:53;14.85;;;2.83;;
61397;SDS011;47267;48.130;-2.040;2024-03-07T08:27:20;7.80;;;2.20;;
61397;SDS011;47267;48.130;-2.040;2024-03-07T08:29:46;5.55;;;2.72;;
61397;SDS011;47267;48.130;-2.040;2024-03-07T08:32:12;5.40;;;2.38;;
61397;SDS011;47267;48.130;-2.040;2024-03-07T08:34:38;7.38;;;2.67;;
61397;SDS011;47267;48.130;-2.040;2024-03-07T08:37:05;12.48;;;2.70;;
61397;SDS011;47267;48.130;-2.040;2024-03-07T08:39:31;7.68;;;2.67;;
61397;SDS011;47267;48.130;-2.040;2024-03-07T08:41:57;6.70;;;2.25;;
61397;SDS011;47267;48.130;-2.040;2024-03-07T08:44:24;5.72;;;2.17;;
61397;SDS011;47267;48.130;-2.040;2024-03-07T08:46:50;6.78;;;2.45;;
61397;SDS011;47267;48.130;-2.040;2024-03-07T08:49:16;5.47;;;2.30;;
61397;SDS011;47267;48.130;-2.040;2024-03-07T08:51:42;4.65;;;2.00;;
61397;SDS011;47267;48.130;-2.040;2024-03-07T08:54:08;7.13;;;2.33;;
61397;SDS011;47267;48.130;-2.040;2024-03-07T08:56:34;6.57;;;2.42;;
61397;SDS011;47267;48.130;-2.040;2024-03-07T08:59:00;4.68;;;1.88;;
61397;SDS011;47267;48.130;-2.040;2024-03-07T09:01:27;5.63;;;2.20;;
61397;SDS011;47267;48.130;-2.040;2024-03-07T09:03:54;6.45;;;2.33;;
61397;SDS011;47267;48.130;-2.040;2024-03-07T09:06:19;5.35;;;2.00;;
61397;SDS011;47267;48.130;-2.040;2024-03-07T09:08:45;4.32;;;1.98;;
61397;SDS011;47267;48.130;-2.040;2024-03-07T09:11:11;5.50;;;2.40;;
61397;SDS011;47267;48.130;-2.040;2024-03-07T09:13:37;4.53;;;2.10;;
61397;SDS011;47267;48.130;-2.040;2024-03-07T09:16:04;4.20;;;2.03;;
61397;SDS011;47267;48.130;-2.040;2024-03-07T09:18:30;6.05;;;2.28;;
61397;SDS011;47267;48.130;-2.040;2024-03-07T09:20:56;5.53;;;1.90;;
61397;SDS011;47267;48.130;-2.040;2024-03-07T09:23:22;2.95;;;1.63;;
61397;SDS011;47267;48.130;-2.040;2024-03-07T09:25:47;4.75;;;2.03;;
61397;SDS011;47267;48.130;-2.040;2024-03-07T09:28:13;4.80;;;2.20;;
61397;SDS011;47267;48.130;-2.040;2024-03-07T09:30:40;4.50;;;1.88;;
61397;SDS011;47267;48.130;-2.040;2024-03-07T09:33:06;2.65;;;1.73;;
61397;SDS011;47267;48.130;-2.040;2024-03-07T09:35:35;3.70;;;1.92;;
61397;SDS011;47267;48.130;-2.040;2024-03-07T09:38:02;6.57;;;2.17;;
61397;SDS011;47267;48.130;-2.040;2024-03-07T09:40:28;5.35;;;1.80;;
61397;SDS011;47267;48.130;-2.040;2024-03-07T09:42:54;3.85;;;1.83;;
61397;SDS011;47267;48.130;-2.040;2024-03-07T09:45:23;3.20;;;1.65;;
61397;SDS011;47267;48.130;-2.040;2024-03-07T09:47:54;3.83;;;1.77;;
61397;SDS011;47267;48.130;-2.040;2024-03-07T09:50:21;3.75;;;1.67;;
61397;SDS011;47267;48.130;-2.040;2024-03-07T09:52:47;3.83;;;1.70;;
61397;SDS011;47267;48.130;-2.040;2024-03-07T09:55:17;4.25;;;1.80;;
61397;SDS011;47267;48.130;-2.040;2024-03-07T09:57:44;3.92;;;1.85;;
61397;SDS011;47267;48.130;-2.040;2024-03-07T10:00:19;3.05;;;1.40;;
61397;SDS011;47267;48.130;-2.040;2024-03-07T10:02:50;3.83;;;2.03;;
61397;SDS011;47267;48.130;-2.040;2024-03-07T10:05:27;2.83;;;1.45;;
61397;SDS011;47267;48.130;-2.040;2024-03-07T10:07:54;3.38;;;1.63;;
61397;SDS011;47267;48.130;-2.040;2024-03-07T10:10:20;3.90;;;1.48;;
61397;SDS011;47267;48.130;-2.040;2024-03-07T10:12:46;3.65;;;1.63;;
61397;SDS011;47267;48.130;-2.040;2024-03-07T10:15:13;3.28;;;1.38;;
61397;SDS011;47267;48.130;-2.040;2024-03-07T10:17:39;3.00;;;1.38;;
61397;SDS011;47267;48.130;-2.040;2024-03-07T10:20:06;4.50;;;1.67;;
61397;SDS011;47267;48.130;-2.040;2024-03-07T10:22:35;4.40;;;1.38;;
61397;SDS011;47267;48.130;-2.040;2024-03-07T10:25:02;2.92;;;1.58;;
61397;SDS011;47267;48.130;-2.040;2024-03-07T10:27:29;3.42;;;1.40;;
61397;SDS011;47267;48.130;-2.040;2024-03-07T10:29:54;5.82;;;1.58;;
61397;SDS011;47267;48.130;-2.040;2024-03-07T10:32:23;3.08;;;1.30;;
61397;SDS011;47267;48.130;-2.040;2024-03-07T10:34:51;5.35;;;1.50;;
61397;SDS011;47267;48.130;-2.040;2024-03-07T10:37:19;5.15;;;1.55;;
61397;SDS011;47267;48.130;-2.040;2024-03-07T10:42:16;3.08;;;1.40;;
61397;SDS011;47267;48.130;-2.040;2024-03-07T10:44:44;3.67;;;1.35;;
61397;SDS011;47267;48.130;-2.040;2024-03-07T10:47:19;2.40;;;1.23;;
61397;SDS011;47267;48.130;-2.040;2024-03-07T10:52:43;6.13;;;1.40;;
61397;SDS011;47267;48.130;-2.040;2024-03-07T10:55:35;3.25;;;1.40;;
61397;SDS011;47267;48.130;-2.040;2024-03-07T10:58:14;3.17;;;1.30;;
61397;SDS011;47267;48.130;-2.040;2024-03-07T11:00:54;2.20;;;1.40;;
61397;SDS011;47267;48.130;-2.040;2024-03-07T11:03:23;2.90;;;1.27;;
61397;SDS011;47267;48.130;-2.040;2024-03-07T11:05:49;4.53;;;1.30;;
61397;SDS011;47267;48.130;-2.040;2024-03-07T11:08:16;3.17;;;1.45;;
61397;SDS011;47267;48.130;-2.040;2024-03-07T11:10:42;2.22;;;1.52;;
61397;SDS011;47267;48.130;-2.040;2024-03-07T11:13:12;2.17;;;1.10;;
61397;SDS011;47267;48.130;-2.040;2024-03-07T11:15:42;3.33;;;1.27;;
61397;SDS011;47267;48.130;-2.040;2024-03-07T11:18:10;2.17;;;1.23;;
61397;SDS011;47267;48.130;-2.040;2024-03-07T11:20:38;4.93;;;1.42;;
61397;SDS011;47267;48.130;-2.040;2024-03-07T11:26:07;4.75;;;2.13;;
61397;SDS011;47267;48.130;-2.040;2024-03-07T11:28:36;6.28;;;3.78;;
61397;SDS011;47267;48.130;-2.040;2024-03-07T11:33:38;20.02;;;8.85;;
61397;SDS011;47267;48.130;-2.040;2024-03-07T11:36:06;17.77;;;8.55;;
61397;SDS011;47267;48.130;-2.040;2024-03-07T11:38:32;21.20;;;10.55;;
61397;SDS011;47267;48.130;-2.040;2024-03-07T11:41:02;23.73;;;11.88;;
61397;SDS011;47267;48.130;-2.040;2024-03-07T11:43:33;24.02;;;13.00;;
61397;SDS011;47267;48.130;-2.040;2024-03-07T11:46:00;33.33;;;16.35;;
61397;SDS011;47267;48.130;-2.040;2024-03-07T11:48:26;35.60;;;16.35;;
61397;SDS011;47267;48.130;-2.040;2024-03-07T11:50:52;31.02;;;16.80;;
61397;SDS011;47267;48.130;-2.040;2024-03-07T11:53:20;30.67;;;16.60;;
61397;SDS011;47267;48.130;-2.040;2024-03-07T11:55:46;36.42;;;18.20;;
61397;SDS011;47267;48.130;-2.040;2024-03-07T11:58:19;32.33;;;18.10;;
61397;SDS011;47267;48.130;-2.040;2024-03-07T12:00:50;39.35;;;18.85;;
61397;SDS011;47267;48.130;-2.040;2024-03-07T12:03:19;37.67;;;20.75;;
61397;SDS011;47267;48.130;-2.040;2024-03-07T12:05:50;39.42;;;20.77;;
61397;SDS011;47267;48.130;-2.040;2024-03-07T12:08:17;41.10;;;22.23;;
61397;SDS011;47267;48.130;-2.040;2024-03-07T12:10:44;43.15;;;21.27;;
61397;SDS011;47267;48.130;-2.040;2024-03-07T12:13:10;42.00;;;22.27;;
61397;SDS011;47267;48.130;-2.040;2024-03-07T12:15:37;43.10;;;23.50;;
61397;SDS011;47267;48.130;-2.040;2024-03-07T12:18:04;45.70;;;23.98;;
61397;SDS011;47267;48.130;-2.040;2024-03-07T12:20:35;47.97;;;24.50;;
61397;SDS011;47267;48.130;-2.040;2024-03-07T12:23:01;42.97;;;23.85;;
61397;SDS011;47267;48.130;-2.040;2024-03-07T12:25:30;47.03;;;24.65;;
61397;SDS011;47267;48.130;-2.040;2024-03-07T12:28:01;45.85;;;24.83;;
61397;SDS011;47267;48.130;-2.040;2024-03-07T12:30:28;48.77;;;24.77;;
61397;SDS011;47267;48.130;-2.040;2024-03-07T12:32:58;45.33;;;25.70;;
61397;SDS011;47267;48.130;-2.040;2024-03-07T12:35:24;44.50;;;23.83;;
61397;SDS011;47267;48.130;-2.040;2024-03-07T12:37:51;44.10;;;25.08;;
61397;SDS011;47267;48.130;-2.040;2024-03-07T12:40:19;42.67;;;24.05;;
61397;SDS011;47267;48.130;-2.040;2024-03-07T12:42:48;42.78;;;25.05;;
61397;SDS011;47267;48.130;-2.040;2024-03-07T12:45:18;44.88;;;25.02;;
61397;SDS011;47267;48.130;-2.040;2024-03-07T12:47:46;48.17;;;24.30;;
61397;SDS011;47267;48.130;-2.040;2024-03-07T12:50:15;44.72;;;24.63;;
61397;SDS011;47267;48.130;-2.040;2024-03-07T12:52:42;45.83;;;25.27;;
61397;SDS011;47267;48.130;-2.040;2024-03-07T12:55:07;42.80;;;24.73;;
61397;SDS011;47267;48.130;-2.040;2024-03-07T12:57:33;45.58;;;24.80;;
61397;SDS011;47267;48.130;-2.040;2024-03-07T12:59:59;43.15;;;24.95;;
61397;SDS011;47267;48.130;-2.040;2024-03-07T13:02:24;43.97;;;24.70;;
61397;SDS011;47267;48.130;-2.040;2024-03-07T13:04:54;39.03;;;22.88;;
61397;SDS011;47267;48.130;-2.040;2024-03-07T13:07:20;44.22;;;23.52;;
61397;SDS011;47267;48.130;-2.040;2024-03-07T13:09:46;39.53;;;22.75;;
61397;SDS011;47267;48.130;-2.040;2024-03-07T13:12:13;40.17;;;22.33;;
61397;SDS011;47267;48.130;-2.040;2024-03-07T13:14:39;39.05;;;22.70;;
61397;SDS011;47267;48.130;-2.040;2024-03-07T13:17:06;40.35;;;23.73;;
61397;SDS011;47267;48.130;-2.040;2024-03-07T13:19:32;45.92;;;22.35;;
61397;SDS011;47267;48.130;-2.040;2024-03-07T13:21:58;40.13;;;21.50;;
61397;SDS011;47267;48.130;-2.040;2024-03-07T13:24:25;34.28;;;20.48;;
61397;SDS011;47267;48.130;-2.040;2024-03-07T13:26:52;38.17;;;21.60;;
61397;SDS011;47267;48.130;-2.040;2024-03-07T13:29:18;34.85;;;21.35;;
61397;SDS011;47267;48.130;-2.040;2024-03-07T13:31:51;35.33;;;20.40;;
61397;SDS011;47267;48.130;-2.040;2024-03-07T13:34:17;40.97;;;21.23;;
61397;SDS011;47267;48.130;-2.040;2024-03-07T13:36:43;37.00;;;20.17;;
61397;SDS011;47267;48.130;-2.040;2024-03-07T13:39:10;36.15;;;20.67;;
61397;SDS011;47267;48.130;-2.040;2024-03-07T13:41:39;28.58;;;18.77;;
61397;SDS011;47267;48.130;-2.040;2024-03-07T13:44:06;36.05;;;20.52;;
61397;SDS011;47267;48.130;-2.040;2024-03-07T13:46:32;33.45;;;19.60;;
61397;SDS011;47267;48.130;-2.040;2024-03-07T13:49:01;37.28;;;20.05;;
61397;SDS011;47267;48.130;-2.040;2024-03-07T13:51:38;30.92;;;17.40;;
61397;SDS011;47267;48.130;-2.040;2024-03-07T13:54:15;30.52;;;18.60;;
61397;SDS011;47267;48.130;-2.040;2024-03-07T13:57:56;30.70;;;18.48;;
61397;SDS011;47267;48.130;-2.040;2024-03-07T14:06:08;29.35;;;16.02;;
61397;SDS011;47267;48.130;-2.040;2024-03-07T14:23:04;26.40;;;15.30;;
61397;SDS011;47267;48.130;-2.040;2024-03-07T14:28:38;24.23;;;14.30;;
61397;SDS011;47267;48.130;-2.040;2024-03-07T14:31:17;24.17;;;13.93;;
61397;SDS011;47267;48.130;-2.040;2024-03-07T14:36:40;21.38;;;13.85;;
61397;SDS011;47267;48.130;-2.040;2024-03-07T14:39:09;26.15;;;13.95;;
61397;SDS011;47267;48.130;-2.040;2024-03-07T14:44:20;21.60;;;13.25;;
61397;SDS011;47267;48.130;-2.040;2024-03-07T14:46:48;19.27;;;12.82;;
61397;SDS011;47267;48.130;-2.040;2024-03-07T14:49:16;21.27;;;12.68;;
61397;SDS011;47267;48.130;-2.040;2024-03-07T14:51:43;21.17;;;13.60;;
61397;SDS011;47267;48.130;-2.040;2024-03-07T14:54:10;21.13;;;12.32;;
61397;SDS011;47267;48.130;-2.040;2024-03-07T14:56:36;20.42;;;12.48;;
61397;SDS011;47267;48.130;-2.040;2024-03-07T14:59:02;21.23;;;12.93;;
61397;SDS011;47267;48.130;-2.040;2024-03-07T15:01:31;20.20;;;12.15;;
61397;SDS011;47267;48.130;-2.040;2024-03-07T15:03:59;17.58;;;11.55;;
61397;SDS011;47267;48.130;-2.040;2024-03-07T15:06:25;18.15;;;12.57;;
61397;SDS011;47267;48.130;-2.040;2024-03-07T15:08:51;20.75;;;12.15;;
61397;SDS011;47267;48.130;-2.040;2024-03-07T15:13:45;20.40;;;11.80;;
61397;SDS011;47267;48.130;-2.040;2024-03-07T15:16:12;17.98;;;11.55;;
61397;SDS011;47267;48.130;-2.040;2024-03-07T15:18:38;19.48;;;11.25;;